sensor_id;sensor_type;location;lat;lon;timestamp;pressure;altitude;pressure_sealevel;temperature;humidity
58467;BME280;44255;49.244;7.726;2023-03-29T03:31:04;98507.50;;;-2.78;79.07
58467;BME280;44255;49.244;7.726;2023-03-29T03:33:29;98509.47;;;-2.94;78.68
58467;BME280;44255;49.244;7.726;2023-03-29T03:35:54;98503.16;;;-2.81;79.22
58467;BME280;44255;49.244;7.726;2023-03-29T03:38:21;98498.28;;;-3.13;80.65
58467;BME280;44255;49.244;7.726;2023-03-29T03:40:52;98504.28;;;-3.00;80.33
58467;BME280;44255;49.244;7.726;2023-03-29T03:43:18;98498.06;;;-2.95;78.38
58467;BME280;44255;49.244;7.726;2023-03-29T03:45:43;98496.56;;;-3.16;78.89
58467;BME280;44255;49.244;7.726;2023-03-29T03:48:08;98493.84;;;-3.08;78.77
58467;BME280;44255;49.244;7.726;2023-03-29T03:50:33;98485.78;;;-2.99;78.52
58467;BME280;44255;49.244;7.726;2023-03-29T03:52:59;98491.16;;;-3.04;78.42
58467;BME280;44255;49.244;7.726;2023-03-29T03:55:24;98492.31;;;-3.30;79.09
58467;BME280;44255;49.244;7.726;2023-03-29T03:57:49;98492.22;;;-3.23;78.93
58467;BME280;44255;49.244;7.726;2023-03-29T04:00:16;98494.25;;;-3.47;79.51
58467;BME280;44255;49.244;7.726;2023-03-29T04:02:45;98495.97;;;-3.43;79.43
58467;BME280;44255;49.244;7.726;2023-03-29T04:05:11;98498.00;;;-3.70;79.91
58467;BME280;44255;49.244;7.726;2023-03-29T04:07:36;98496.97;;;-3.53;79.41
58467;BME280;44255;49.244;7.726;2023-03-29T04:10:03;98499.66;;;-3.63;79.80
58467;BME280;44255;49.244;7.726;2023-03-29T04:12:28;98511.09;;;-3.62;79.59
58467;BME280;44255;49.244;7.726;2023-03-29T04:14:53;98502.22;;;-3.55;78.95
58467;BME280;44255;49.244;7.726;2023-03-29T04:17:19;98500.25;;;-3.33;78.39
58467;BME280;44255;49.244;7.726;2023-03-29T04:19:44;98496.03;;;-3.49;78.26
58467;BME280;44255;49.244;7.726;2023-03-29T04:22:10;98500.38;;;-3.45;77.76
58467;BME280;44255;49.244;7.726;2023-03-29T04:24:35;98497.03;;;-3.61;78.19
58467;BME280;44255;49.244;7.726;2023-03-29T04:27:00;98491.81;;;-3.67;78.73
58467;BME280;44255;49.244;7.726;2023-03-29T04:29:26;98497.06;;;-3.66;78.02
58467;BME280;44255;49.244;7.726;2023-03-29T04:31:51;98496.31;;;-3.82;78.85
58467;BME280;44255;49.244;7.726;2023-03-29T04:34:16;98498.06;;;-3.81;79.47
58467;BME280;44255;49.244;7.726;2023-03-29T04:36:41;98494.69;;;-3.97;79.97
58467;BME280;44255;49.244;7.726;2023-03-29T04:39:07;98502.53;;;-3.88;80.17
58467;BME280;44255;49.244;7.726;2023-03-29T04:41:33;98503.41;;;-3.85;80.18
58467;BME280;44255;49.244;7.726;2023-03-29T04:43:59;98507.94;;;-4.03;81.27
58467;BME280;44255;49.244;7.726;2023-03-29T04:46:24;98510.59;;;-4.06;81.20
58467;BME280;44255;49.244;7.726;2023-03-29T04:48:50;98500.13;;;-4.17;80.82
58467;BME280;44255;49.244;7.726;2023-03-29T04:51:16;98517.66;;;-4.16;80.42
58467;BME280;44255;49.244;7.726;2023-03-29T04:53:41;98514.97;;;-4.07;79.92
58467;BME280;44255;49.244;7.726;2023-03-29T04:56:07;98508.75;;;-3.99;79.57
58467;BME280;44255;49.244;7.726;2023-03-29T04:58:32;98507.88;;;-3.98;79.71
58467;BME280;44255;49.244;7.726;2023-03-29T05:00:57;98518.50;;;-4.06;79.84
58467;BME280;44255;49.244;7.726;2023-03-29T05:03:23;98513.16;;;-4.00;79.94
58467;BME280;44255;49.244;7.726;2023-03-29T05:05:49;98523.72;;;-4.03;79.41
58467;BME280;44255;49.244;7.726;2023-03-29T05:08:15;98523.72;;;-4.03;79.38
58467;BME280;44255;49.244;7.726;2023-03-29T05:10:42;98518.19;;;-3.70;78.01
58467;BME280;44255;49.244;7.726;2023-03-29T05:13:08;98516.69;;;-4.03;78.38
58467;BME280;44255;49.244;7.726;2023-03-29T05:15:33;98524.50;;;-3.90;78.35
58467;BME280;44255;49.244;7.726;2023-03-29T05:17:59;98517.56;;;-4.04;78.37
58467;BME280;44255;49.244;7.726;2023-03-29T05:20:25;98530.81;;;-4.13;79.55
58467;BME280;44255;49.244;7.726;2023-03-29T05:22:50;98520.28;;;-4.13;79.36
58467;BME280;44255;49.244;7.726;2023-03-29T05:25:15;98515.84;;;-4.06;79.24
58467;BME280;44255;49.244;7.726;2023-03-29T05:27:42;98520.06;;;-3.85;78.07
58467;BME280;44255;49.244;7.726;2023-03-29T05:30:10;98518.34;;;-3.89;78.59
58467;BME280;44255;49.244;7.726;2023-03-29T05:32:36;98523.53;;;-3.80;78.07
58467;BME280;44255;49.244;7.726;2023-03-29T05:35:02;98521.94;;;-4.01;78.67
58467;BME280;44255;49.244;7.726;2023-03-29T05:37:27;98514.94;;;-4.04;80.25
58467;BME280;44255;49.244;7.726;2023-03-29T05:39:53;98514.81;;;-3.87;79.90
58467;BME280;44255;49.244;7.726;2023-03-29T05:42:19;98516.63;;;-3.93;80.07
58467;BME280;44255;49.244;7.726;2023-03-29T05:44:46;98513.69;;;-3.61;78.64
58467;BME280;44255;49.244;7.726;2023-03-29T05:47:12;98513.75;;;-3.67;78.53
58467;BME280;44255;49.244;7.726;2023-03-29T05:49:37;98525.84;;;-3.44;78.12
58467;BME280;44255;49.244;7.726;2023-03-29T05:52:03;98527.59;;;-3.43;78.43
58467;BME280;44255;49.244;7.726;2023-03-29T05:54:28;98531.00;;;-3.33;77.93
58467;BME280;44255;49.244;7.726;2023-03-29T05:56:54;98526.66;;;-3.39;77.41
58467;BME280;44255;49.244;7.726;2023-03-29T05:59:19;98523.34;;;-3.60;78.15
58467;BME280;44255;49.244;7.726;2023-03-29T06:01:44;98523.94;;;-3.28;76.88
58467;BME280;44255;49.244;7.726;2023-03-29T06:04:11;98519.59;;;-3.34;77.16
58467;BME280;44255;49.244;7.726;2023-03-29T06:06:37;98517.69;;;-3.19;77.33
58467;BME280;44255;49.244;7.726;2023-03-29T06:09:02;98514.38;;;-3.40;78.54
58467;BME280;44255;49.244;7.726;2023-03-29T06:11:28;98519.56;;;-3.31;77.97
58467;BME280;44255;49.244;7.726;2023-03-29T06:13:53;98508.97;;;-3.26;79.04
58467;BME280;44255;49.244;7.726;2023-03-29T06:16:18;98515.94;;;-3.22;78.37
58467;BME280;44255;49.244;7.726;2023-03-29T06:18:43;98523.66;;;-3.05;77.72
58467;BME280;44255;49.244;7.726;2023-03-29T06:21:09;98521.81;;;-2.96;78.20
58467;BME280;44255;49.244;7.726;2023-03-29T06:23:35;98524.53;;;-3.04;78.20
58467;BME280;44255;49.244;7.726;2023-03-29T06:26:00;98523.81;;;-3.19;79.04
58467;BME280;44255;49.244;7.726;2023-03-29T06:28:26;98527.13;;;-2.99;78.93
58467;BME280;44255;49.244;7.726;2023-03-29T06:30:51;98532.69;;;-3.26;80.42
58467;BME280;44255;49.244;7.726;2023-03-29T06:33:20;98525.13;;;-2.79;78.63
58467;BME280;44255;49.244;7.726;2023-03-29T06:35:47;98533.81;;;-2.70;78.31
58467;BME280;44255;49.244;7.726;2023-03-29T06:38:13;98538.97;;;-2.61;77.72
58467;BME280;44255;49.244;7.726;2023-03-29T06:40:39;98536.19;;;-2.49;77.64
58467;BME280;44255;49.244;7.726;2023-03-29T06:43:05;98534.38;;;-2.47;77.83
58467;BME280;44255;49.244;7.726;2023-03-29T06:45:35;98533.38;;;-2.38;77.25
58467;BME280;44255;49.244;7.726;2023-03-29T06:48:02;98533.59;;;-2.55;77.65
58467;BME280;44255;49.244;7.726;2023-03-29T06:50:28;98529.97;;;-2.46;78.73
58467;BME280;44255;49.244;7.726;2023-03-29T06:52:54;98537.19;;;-2.57;78.94
58467;BME280;44255;49.244;7.726;2023-03-29T06:55:20;98545.28;;;-2.73;80.39
58467;BME280;44255;49.244;7.726;2023-03-29T06:57:47;98545.22;;;-2.68;80.48
58467;BME280;44255;49.244;7.726;2023-03-29T07:00:13;98546.84;;;-2.56;80.06
58467;BME280;44255;49.244;7.726;2023-03-29T07:03:06;98549.25;;;-2.39;79.95
58467;BME280;44255;49.244;7.726;2023-03-29T07:05:34;98546.63;;;-2.41;79.66
58467;BME280;44255;49.244;7.726;2023-03-29T07:08:00;98552.81;;;-2.45;80.74
58467;BME280;44255;49.244;7.726;2023-03-29T07:10:31;98545.91;;;-2.54;81.55
58467;BME280;44255;49.244;7.726;2023-03-29T07:12:57;98547.38;;;-2.31;81.52
58467;BME280;44255;49.244;7.726;2023-03-29T07:15:27;98544.75;;;-2.31;81.68
58467;BME280;44255;49.244;7.726;2023-03-29T07:17:52;98541.16;;;-2.27;81.89
58467;BME280;44255;49.244;7.726;2023-03-29T07:20:18;98532.91;;;-2.04;81.99
58467;BME280;44255;49.244;7.726;2023-03-29T07:22:44;98530.09;;;-1.91;81.47
58467;BME280;44255;49.244;7.726;2023-03-29T07:25:11;98534.38;;;-1.82;81.13
58467;BME280;44255;49.244;7.726;2023-03-29T07:27:38;98533.09;;;-1.61;79.67
58467;BME280;44255;49.244;7.726;2023-03-29T07:30:05;98550.34;;;-1.90;80.59
58467;BME280;44255;49.244;7.726;2023-03-29T07:32:35;98546.56;;;-1.77;80.33
58467;BME280;44255;49.244;7.726;2023-03-29T07:35:01;98550.78;;;-1.63;80.85
58467;BME280;44255;49.244;7.726;2023-03-29T07:37:29;98554.91;;;-1.47;80.68
58467;BME280;44255;49.244;7.726;2023-03-29T07:39:54;98557.91;;;-1.68;80.18
58467;BME280;44255;49.244;7.726;2023-03-29T07:42:20;98556.53;;;-1.93;81.47
58467;BME280;44255;49.244;7.726;2023-03-29T07:44:46;98552.94;;;-1.89;82.15
58467;BME280;44255;49.244;7.726;2023-03-29T07:47:12;98562.41;;;-1.74;82.06
58467;BME280;44255;49.244;7.726;2023-03-29T07:49:38;98552.75;;;-1.76;83.35
58467;BME280;44255;49.244;7.726;2023-03-29T07:52:03;98552.50;;;-1.61;82.80
58467;BME280;44255;49.244;7.726;2023-03-29T07:54:29;98554.88;;;-1.45;82.14
58467;BME280;44255;49.244;7.726;2023-03-29T07:56:56;98553.28;;;-1.54;82.44
58467;BME280;44255;49.244;7.726;2023-03-29T07:59:22;98554.84;;;-1.43;82.79
58467;BME280;44255;49.244;7.726;2023-03-29T08:01:47;98555.59;;;-1.37;82.13
58467;BME280;44255;49.244;7.726;2023-03-29T08:04:13;98554.34;;;-1.14;81.75
58467;BME280;44255;49.244;7.726;2023-03-29T08:06:38;98553.16;;;-0.97;81.02
58467;BME280;44255;49.244;7.726;2023-03-29T08:09:03;98544.31;;;-0.96;81.46
58467;BME280;44255;49.244;7.726;2023-03-29T08:11:28;98532.78;;;-0.94;81.76
58467;BME280;44255;49.244;7.726;2023-03-29T08:13:54;98530.31;;;-0.59;81.00
58467;BME280;44255;49.244;7.726;2023-03-29T08:16:19;98535.88;;;-0.31;80.14
58467;BME280;44255;49.244;7.726;2023-03-29T08:18:44;98526.41;;;-0.01;78.36
58467;BME280;44255;49.244;7.726;2023-03-29T08:21:10;98521.81;;;0.05;78.66
58467;BME280;44255;49.244;7.726;2023-03-29T08:23:35;98526.69;;;0.24;77.70
58467;BME280;44255;49.244;7.726;2023-03-29T08:26:00;98520.22;;;0.34;77.74
58467;BME280;44255;49.244;7.726;2023-03-29T08:28:26;98517.34;;;0.44;78.19
58467;BME280;44255;49.244;7.726;2023-03-29T08:30:51;98508.19;;;0.57;77.54
58467;BME280;44255;49.244;7.726;2023-03-29T08:33:17;98511.59;;;0.95;77.32
58467;BME280;44255;49.244;7.726;2023-03-29T08:35:43;98506.78;;;1.10;77.40
58467;BME280;44255;49.244;7.726;2023-03-29T08:38:08;98499.34;;;1.21;76.46
58467;BME280;44255;49.244;7.726;2023-03-29T08:40:34;98492.19;;;1.23;75.99
58467;BME280;44255;49.244;7.726;2023-03-29T08:48:36;98493.25;;;1.48;76.04
58467;BME280;44255;49.244;7.726;2023-03-29T08:51:13;98489.22;;;1.64;76.73
58467;BME280;44255;49.244;7.726;2023-03-29T08:53:49;98482.16;;;1.92;76.25
58467;BME280;44255;49.244;7.726;2023-03-29T08:56:20;98481.47;;;2.41;73.59
58467;BME280;44255;49.244;7.726;2023-03-29T08:58:48;98488.06;;;2.29;74.36
58467;BME280;44255;49.244;7.726;2023-03-29T09:01:15;98479.63;;;2.43;74.07
58467;BME280;44255;49.244;7.726;2023-03-29T09:03:46;98475.31;;;2.65;72.81
58467;BME280;44255;49.244;7.726;2023-03-29T09:06:13;98475.63;;;2.81;71.99
58467;BME280;44255;49.244;7.726;2023-03-29T09:08:46;98475.84;;;3.01;71.03
58467;BME280;44255;49.244;7.726;2023-03-29T09:19:15;98472.81;;;3.58;66.80
58467;BME280;44255;49.244;7.726;2023-03-29T09:22:12;98475.88;;;3.93;66.69
58467;BME280;44255;49.244;7.726;2023-03-29T09:24:46;98471.94;;;4.03;65.39
58467;BME280;44255;49.244;7.726;2023-03-29T09:27:23;98474.13;;;3.92;62.60
58467;BME280;44255;49.244;7.726;2023-03-29T09:32:27;98479.56;;;4.13;63.96
58467;BME280;44255;49.244;7.726;2023-03-29T09:35:14;98477.25;;;4.26;62.55
58467;BME280;44255;49.244;7.726;2023-03-29T09:37:43;98476.94;;;4.33;62.52
58467;BME280;44255;49.244;7.726;2023-03-29T09:40:22;98482.84;;;4.40;61.94
58467;BME280;44255;49.244;7.726;2023-03-29T09:42:51;98476.25;;;4.49;58.90
58467;BME280;44255;49.244;7.726;2023-03-29T09:45:18;98465.19;;;4.37;58.26
58467;BME280;44255;49.244;7.726;2023-03-29T09:50:21;98476.81;;;4.57;59.56
58467;BME280;44255;49.244;7.726;2023-03-29T09:52:48;98479.53;;;4.56;57.79
58467;BME280;44255;49.244;7.726;2023-03-29T09:55:15;98474.75;;;4.85;57.55
58467;BME280;44255;49.244;7.726;2023-03-29T09:57:41;98467.94;;;4.77;56.44
58467;BME280;44255;49.244;7.726;2023-03-29T10:00:09;98466.13;;;5.18;55.67
58467;BME280;44255;49.244;7.726;2023-03-29T10:02:35;98465.25;;;5.17;55.14
58467;BME280;44255;49.244;7.726;2023-03-29T10:05:04;98463.41;;;5.19;56.19
58467;BME280;44255;49.244;7.726;2023-03-29T10:07:46;98458.91;;;5.20;56.22
58467;BME280;44255;49.244;7.726;2023-03-29T10:10:29;98457.06;;;5.41;54.56
58467;BME280;44255;49.244;7.726;2023-03-29T10:12:58;98453.69;;;5.57;55.72
58467;BME280;44255;49.244;7.726;2023-03-29T10:15:27;98446.44;;;5.40;55.12
58467;BME280;44255;49.244;7.726;2023-03-29T10:17:57;98452.03;;;5.14;54.90
58467;BME280;44255;49.244;7.726;2023-03-29T10:20:23;98441.94;;;5.02;54.74
58467;BME280;44255;49.244;7.726;2023-03-29T10:22:55;98433.00;;;4.82;55.53
58467;BME280;44255;49.244;7.726;2023-03-29T10:25:25;98427.84;;;5.17;56.77
58467;BME280;44255;49.244;7.726;2023-03-29T10:27:51;98423.69;;;5.31;56.44
58467;BME280;44255;49.244;7.726;2023-03-29T10:30:21;98428.09;;;5.32;54.25
58467;BME280;44255;49.244;7.726;2023-03-29T10:32:55;98417.91;;;5.59;53.30
58467;BME280;44255;49.244;7.726;2023-03-29T10:35:48;98407.63;;;5.69;55.53
58467;BME280;44255;49.244;7.726;2023-03-29T10:38:17;98411.44;;;5.83;54.24
58467;BME280;44255;49.244;7.726;2023-03-29T10:40:44;98408.00;;;5.98;53.17
58467;BME280;44255;49.244;7.726;2023-03-29T10:45:37;98410.94;;;6.11;52.67
58467;BME280;44255;49.244;7.726;2023-03-29T10:48:03;98403.31;;;6.21;52.55
58467;BME280;44255;49.244;7.726;2023-03-29T10:50:33;98408.97;;;6.50;52.77
58467;BME280;44255;49.244;7.726;2023-03-29T10:52:59;98406.28;;;6.32;53.03
58467;BME280;44255;49.244;7.726;2023-03-29T10:55:31;98401.03;;;6.48;52.25
58467;BME280;44255;49.244;7.726;2023-03-29T11:01:01;98408.81;;;6.18;52.23
58467;BME280;44255;49.244;7.726;2023-03-29T11:06:16;98406.53;;;6.28;52.88
58467;BME280;44255;49.244;7.726;2023-03-29T11:08:57;98403.44;;;6.00;53.06
58467;BME280;44255;49.244;7.726;2023-03-29T11:11:39;98409.91;;;6.14;53.18
58467;BME280;44255;49.244;7.726;2023-03-29T11:16:59;98414.47;;;6.12;52.51
58467;BME280;44255;49.244;7.726;2023-03-29T11:19:40;98423.28;;;5.96;52.02
58467;BME280;44255;49.244;7.726;2023-03-29T11:27:39;98424.25;;;6.13;52.17
58467;BME280;44255;49.244;7.726;2023-03-29T11:30:21;98417.31;;;6.26;52.23
58467;BME280;44255;49.244;7.726;2023-03-29T11:36:02;98416.59;;;6.58;51.95
58467;BME280;44255;49.244;7.726;2023-03-29T11:41:02;98425.19;;;6.47;51.57
58467;BME280;44255;49.244;7.726;2023-03-29T11:43:46;98421.97;;;6.22;52.33
58467;BME280;44255;49.244;7.726;2023-03-29T11:46:20;98416.81;;;6.00;52.92
58467;BME280;44255;49.244;7.726;2023-03-29T11:49:04;98412.44;;;6.17;52.12
58467;BME280;44255;49.244;7.726;2023-03-29T11:51:39;98410.06;;;6.46;52.28
58467;BME280;44255;49.244;7.726;2023-03-29T11:54:31;98415.19;;;6.50;52.06
58467;BME280;44255;49.244;7.726;2023-03-29T11:57:13;98406.25;;;6.68;51.69
58467;BME280;44255;49.244;7.726;2023-03-29T11:59:53;98405.94;;;6.91;50.88
58467;BME280;44255;49.244;7.726;2023-03-29T12:02:41;98402.50;;;6.89;51.52
58467;BME280;44255;49.244;7.726;2023-03-29T12:05:16;98397.44;;;7.17;51.16
58467;BME280;44255;49.244;7.726;2023-03-29T12:10:39;98391.28;;;7.31;50.92
58467;BME280;44255;49.244;7.726;2023-03-29T12:13:29;98397.34;;;7.18;51.23
58467;BME280;44255;49.244;7.726;2023-03-29T12:16:08;98398.53;;;7.13;51.50
58467;BME280;44255;49.244;7.726;2023-03-29T12:18:41;98401.13;;;7.30;50.95
58467;BME280;44255;49.244;7.726;2023-03-29T12:21:13;98394.16;;;7.28;51.99
58467;BME280;44255;49.244;7.726;2023-03-29T12:23:42;98411.38;;;7.24;52.27
58467;BME280;44255;49.244;7.726;2023-03-29T12:37:26;98396.22;;;7.22;52.17
58467;BME280;44255;49.244;7.726;2023-03-29T12:40:02;98380.50;;;7.48;51.53
58467;BME280;44255;49.244;7.726;2023-03-29T12:42:29;98390.59;;;7.59;51.55
58467;BME280;44255;49.244;7.726;2023-03-29T12:44:58;98377.72;;;7.50;52.00
58467;BME280;44255;49.244;7.726;2023-03-29T12:47:32;98382.66;;;7.26;52.83
58467;BME280;44255;49.244;7.726;2023-03-29T12:49:59;98386.63;;;7.50;53.45
58467;BME280;44255;49.244;7.726;2023-03-29T12:52:33;98383.44;;;7.28;53.42
58467;BME280;44255;49.244;7.726;2023-03-29T12:55:02;98381.28;;;7.34;53.69
58467;BME280;44255;49.244;7.726;2023-03-29T12:57:43;98383.94;;;7.18;54.25
58467;BME280;44255;49.244;7.726;2023-03-29T13:00:23;98404.47;;;6.68;56.07
58467;BME280;44255;49.244;7.726;2023-03-29T13:03:04;98397.28;;;6.69;56.74
58467;BME280;44255;49.244;7.726;2023-03-29T13:05:43;98402.91;;;6.29;58.70
58467;BME280;44255;49.244;7.726;2023-03-29T13:08:20;98412.03;;;6.07;59.86
58467;BME280;44255;49.244;7.726;2023-03-29T13:10:52;98408.19;;;6.30;59.88
58467;BME280;44255;49.244;7.726;2023-03-29T13:13:55;98416.16;;;6.32;60.12
58467;BME280;44255;49.244;7.726;2023-03-29T13:16:18;98404.41;;;6.34;60.48
58467;BME280;44255;49.244;7.726;2023-03-29T13:32:52;98396.09;;;5.69;64.57
58467;BME280;44255;49.244;7.726;2023-03-29T13:35:42;98405.84;;;5.50;67.00
58467;BME280;44255;49.244;7.726;2023-03-29T13:38:20;98401.84;;;5.78;66.42
58467;BME280;44255;49.244;7.726;2023-03-29T13:43:28;98396.81;;;5.72;65.98
58467;BME280;44255;49.244;7.726;2023-03-29T13:53:40;98365.69;;;8.34;56.75
58467;BME280;44255;49.244;7.726;2023-03-29T13:56:14;98372.63;;;8.53;56.07
58467;BME280;44255;49.244;7.726;2023-03-29T13:58:50;98362.47;;;8.44;55.90
58467;BME280;44255;49.244;7.726;2023-03-29T14:01:24;98356.44;;;8.98;53.78
58467;BME280;44255;49.244;7.726;2023-03-29T14:03:51;98341.69;;;9.05;53.71
58467;BME280;44255;49.244;7.726;2023-03-29T14:06:26;98344.94;;;8.53;54.99
58467;BME280;44255;49.244;7.726;2023-03-29T14:08:54;98357.69;;;8.04;55.14
58467;BME280;44255;49.244;7.726;2023-03-29T14:11:26;98345.78;;;8.53;54.38
58467;BME280;44255;49.244;7.726;2023-03-29T14:13:54;98338.00;;;8.77;52.13
58467;BME280;44255;49.244;7.726;2023-03-29T14:16:21;98321.75;;;9.23;50.77
58467;BME280;44255;49.244;7.726;2023-03-29T14:18:51;98332.56;;;8.64;51.92
58467;BME280;44255;49.244;7.726;2023-03-29T14:21:19;98330.25;;;7.83;52.61
58467;BME280;44255;49.244;7.726;2023-03-29T14:23:52;98332.34;;;7.77;53.24
58467;BME280;44255;49.244;7.726;2023-03-29T14:26:21;98320.56;;;7.33;54.73
58467;BME280;44255;49.244;7.726;2023-03-29T14:28:48;98317.38;;;7.27;54.41
58467;BME280;44255;49.244;7.726;2023-03-29T14:31:19;98309.13;;;7.46;54.41
58467;BME280;44255;49.244;7.726;2023-03-29T14:33:45;98303.16;;;7.87;53.90
58467;BME280;44255;49.244;7.726;2023-03-29T14:36:14;98300.13;;;7.93;53.46
58467;BME280;44255;49.244;7.726;2023-03-29T14:38:44;98294.78;;;7.93;52.86
58467;BME280;44255;49.244;7.726;2023-03-29T14:41:12;98288.59;;;8.37;51.95
58467;BME280;44255;49.244;7.726;2023-03-29T14:43:38;98279.19;;;8.73;51.08
58467;BME280;44255;49.244;7.726;2023-03-29T14:46:04;98283.16;;;8.38;51.75
58467;BME280;44255;49.244;7.726;2023-03-29T14:48:31;98276.50;;;8.58;51.84
58467;BME280;44255;49.244;7.726;2023-03-29T14:50:58;98272.84;;;8.74;50.54
58467;BME280;44255;49.244;7.726;2023-03-29T14:53:24;98273.81;;;8.73;50.92
58467;BME280;44255;49.244;7.726;2023-03-29T14:55:52;98280.91;;;8.59;51.70
58467;BME280;44255;49.244;7.726;2023-03-29T14:58:26;98271.25;;;8.28;52.31
58467;BME280;44255;49.244;7.726;2023-03-29T15:00:52;98268.84;;;8.52;52.01
58467;BME280;44255;49.244;7.726;2023-03-29T15:03:18;98266.91;;;8.69;51.81
58467;BME280;44255;49.244;7.726;2023-03-29T15:05:53;98267.50;;;8.16;52.67
58467;BME280;44255;49.244;7.726;2023-03-29T15:10:54;98264.06;;;8.14;52.62
58467;BME280;44255;49.244;7.726;2023-03-29T15:13:21;98255.69;;;8.76;51.57
58467;BME280;44255;49.244;7.726;2023-03-29T15:15:51;98251.53;;;8.85;50.88
58467;BME280;44255;49.244;7.726;2023-03-29T15:18:25;98256.72;;;9.58;49.18
58467;BME280;44255;49.244;7.726;2023-03-29T15:20:51;98251.25;;;9.72;49.29
58467;BME280;44255;49.244;7.726;2023-03-29T15:23:23;98240.94;;;9.66;49.53
58467;BME280;44255;49.244;7.726;2023-03-29T15:25:55;98238.38;;;9.37;49.80
58467;BME280;44255;49.244;7.726;2023-03-29T15:28:27;98245.56;;;8.95;51.01
58467;BME280;44255;49.244;7.726;2023-03-29T15:33:31;98236.38;;;8.84;52.28
58467;BME280;44255;49.244;7.726;2023-03-29T15:35:57;98232.97;;;8.68;52.20
58467;BME280;44255;49.244;7.726;2023-03-29T15:38:22;98232.28;;;8.49;51.62
58467;BME280;44255;49.244;7.726;2023-03-29T15:40:47;98233.44;;;8.60;51.48
58467;BME280;44255;49.244;7.726;2023-03-29T15:43:13;98231.28;;;8.94;51.48
58467;BME280;44255;49.244;7.726;2023-03-29T15:45:38;98229.13;;;8.57;52.13
58467;BME280;44255;49.244;7.726;2023-03-29T15:48:15;98231.81;;;8.57;52.96
58467;BME280;44255;49.244;7.726;2023-03-29T15:50:43;98218.09;;;8.47;52.79
58467;BME280;44255;49.244;7.726;2023-03-29T15:53:09;98222.22;;;8.53;53.36
58467;BME280;44255;49.244;7.726;2023-03-29T15:55:34;98221.94;;;8.58;52.96
58467;BME280;44255;49.244;7.726;2023-03-29T15:58:01;98213.00;;;8.57;53.40
58467;BME280;44255;49.244;7.726;2023-03-29T16:00:26;98207.84;;;8.40;53.39
58467;BME280;44255;49.244;7.726;2023-03-29T16:02:52;98205.00;;;8.28;53.44
58467;BME280;44255;49.244;7.726;2023-03-29T16:05:17;98202.47;;;8.54;53.51
58467;BME280;44255;49.244;7.726;2023-03-29T16:07:43;98203.97;;;8.73;53.46
58467;BME280;44255;49.244;7.726;2023-03-29T16:10:08;98195.41;;;8.81;54.37
58467;BME280;44255;49.244;7.726;2023-03-29T16:12:34;98192.59;;;8.69;55.13
58467;BME280;44255;49.244;7.726;2023-03-29T16:15:10;98188.22;;;8.81;53.48
58467;BME280;44255;49.244;7.726;2023-03-29T16:17:37;98188.78;;;8.44;53.67
58467;BME280;44255;49.244;7.726;2023-03-29T16:20:02;98188.06;;;8.55;54.31
58467;BME280;44255;49.244;7.726;2023-03-29T16:22:29;98190.59;;;8.44;54.22
58467;BME280;44255;49.244;7.726;2023-03-29T16:24:54;98184.09;;;8.75;53.98
58467;BME280;44255;49.244;7.726;2023-03-29T16:27:20;98178.84;;;8.59;55.58
58467;BME280;44255;49.244;7.726;2023-03-29T16:29:46;98180.72;;;8.44;55.78
58467;BME280;44255;49.244;7.726;2023-03-29T16:32:11;98178.13;;;8.43;56.51
58467;BME280;44255;49.244;7.726;2023-03-29T16:34:36;98172.09;;;8.39;56.98
58467;BME280;44255;49.244;7.726;2023-03-29T16:37:02;98178.03;;;8.44;56.72
58467;BME280;44255;49.244;7.726;2023-03-29T16:39:27;98171.69;;;8.45;56.64
58467;BME280;44255;49.244;7.726;2023-03-29T16:41:53;98171.63;;;8.47;57.10
58467;BME280;44255;49.244;7.726;2023-03-29T16:44:19;98168.59;;;8.52;57.71
58467;BME280;44255;49.244;7.726;2023-03-29T16:46:46;98159.88;;;8.62;56.80
58467;BME280;44255;49.244;7.726;2023-03-29T16:49:13;98158.28;;;8.73;55.34
58467;BME280;44255;49.244;7.726;2023-03-29T16:51:42;98150.47;;;8.55;57.09
58467;BME280;44255;49.244;7.726;2023-03-29T16:54:07;98144.06;;;8.58;57.59
58467;BME280;44255;49.244;7.726;2023-03-29T16:56:33;98140.63;;;8.83;56.86
58467;BME280;44255;49.244;7.726;2023-03-29T16:59:01;98132.84;;;8.51;56.53
58467;BME280;44255;49.244;7.726;2023-03-29T17:01:26;98131.72;;;8.41;57.33
58467;BME280;44255;49.244;7.726;2023-03-29T17:03:51;98136.03;;;8.29;58.23
58467;BME280;44255;49.244;7.726;2023-03-29T17:06:17;98134.59;;;8.23;58.59
58467;BME280;44255;49.244;7.726;2023-03-29T17:08:42;98142.78;;;8.21;58.64
58467;BME280;44255;49.244;7.726;2023-03-29T17:11:07;98138.59;;;8.03;58.49
58467;BME280;44255;49.244;7.726;2023-03-29T17:13:32;98129.28;;;7.94;58.37
58467;BME280;44255;49.244;7.726;2023-03-29T17:15:58;98131.06;;;7.79;60.56
58467;BME280;44255;49.244;7.726;2023-03-29T17:18:24;98132.00;;;7.78;60.28
58467;BME280;44255;49.244;7.726;2023-03-29T17:20:51;98126.38;;;7.83;60.73
58467;BME280;44255;49.244;7.726;2023-03-29T17:23:17;98129.59;;;7.73;61.13
58467;BME280;44255;49.244;7.726;2023-03-29T17:25:43;98135.94;;;7.58;63.17
58467;BME280;44255;49.244;7.726;2023-03-29T17:28:09;98134.97;;;7.59;62.55
58467;BME280;44255;49.244;7.726;2023-03-29T17:30:35;98132.34;;;7.43;63.56
58467;BME280;44255;49.244;7.726;2023-03-29T17:33:01;98121.09;;;7.52;63.62
58467;BME280;44255;49.244;7.726;2023-03-29T17:35:26;98124.97;;;7.32;60.62
58467;BME280;44255;49.244;7.726;2023-03-29T17:37:52;98131.47;;;7.28;64.01
58467;BME280;44255;49.244;7.726;2023-03-29T17:40:19;98131.31;;;7.15;64.88
58467;BME280;44255;49.244;7.726;2023-03-29T17:42:44;98119.22;;;7.24;65.19
58467;BME280;44255;49.244;7.726;2023-03-29T17:45:14;98129.91;;;6.93;66.94
58467;BME280;44255;49.244;7.726;2023-03-29T17:47:40;98127.22;;;6.93;66.94
58467;BME280;44255;49.244;7.726;2023-03-29T17:50:07;98133.88;;;7.02;66.40
58467;BME280;44255;49.244;7.726;2023-03-29T17:52:32;98135.19;;;6.95;67.15
58467;BME280;44255;49.244;7.726;2023-03-29T17:54:58;98149.00;;;6.71;67.57
58467;BME280;44255;49.244;7.726;2023-03-29T17:57:23;98147.81;;;6.60;68.10
58467;BME280;44255;49.244;7.726;2023-03-29T17:59:48;98148.00;;;6.57;68.70
58467;BME280;44255;49.244;7.726;2023-03-29T18:02:19;98145.72;;;6.98;67.94
58467;BME280;44255;49.244;7.726;2023-03-29T18:04:45;98155.16;;;6.89;67.36
58467;BME280;44255;49.244;7.726;2023-03-29T18:07:10;98148.53;;;6.80;67.60
58467;BME280;44255;49.244;7.726;2023-03-29T18:09:36;98144.78;;;6.67;67.54